createdAt,value
2022-10-03T00:03:37.612Z,0.00
2022-10-03T00:09:37.669Z,0.02
2022-10-03T00:15:37.679Z,0.06
2022-10-03T00:21:37.948Z,0.00
2022-10-03T00:27:37.711Z,0.14
2022-10-03T00:33:37.675Z,0.40
2022-10-03T00:39:37.687Z,0.34
2022-10-03T00:49:15.403Z,1.02
2022-10-03T00:55:35.607Z,0.01
2022-10-03T01:01:35.734Z,0.01
2022-10-03T01:07:35.753Z,0.00
2022-10-03T01:13:35.770Z,0.01
2022-10-03T01:19:35.834Z,0.16
2022-10-03T01:25:35.755Z,0.14
2022-10-03T01:31:35.861Z,0.03
2022-10-03T01:37:35.813Z,0.15
2022-10-03T01:43:35.851Z,0.06
2022-10-03T01:49:35.832Z,0.04
2022-10-03T01:55:35.812Z,0.00
2022-10-03T02:01:36.037Z,0.00
2022-10-03T02:07:35.848Z,0.00
2022-10-03T02:13:35.835Z,0.20
2022-10-03T02:22:16.739Z,0.06
2022-10-03T02:28:36.904Z,0.79
2022-10-03T02:34:36.915Z,0.74
2022-10-03T02:40:36.912Z,0.29
2022-10-03T02:46:36.979Z,0.15
2022-10-03T02:52:36.995Z,0.56
2022-10-03T02:58:37.012Z,0.76
2022-10-03T03:04:37.016Z,0.38
2022-10-03T03:10:37.039Z,0.03
2022-10-03T03:16:37.064Z,0.10
2022-10-03T03:22:37.005Z,0.00
2022-10-03T03:28:37.027Z,0.00
2022-10-03T03:34:37.012Z,0.03
2022-10-03T03:40:37.003Z,0.00
2022-10-03T03:46:37.008Z,0.11
2022-10-03T03:52:37.012Z,0.00
2022-10-03T03:58:37.021Z,0.00
2022-10-03T04:04:37.018Z,0.00
2022-10-03T04:10:37.046Z,0.09
2022-10-03T04:16:37.068Z,0.18
2022-10-03T04:22:37.020Z,0.05
2022-10-03T04:28:37.004Z,0.04
2022-10-03T04:34:36.997Z,0.21
2022-10-03T04:40:36.992Z,0.06
2022-10-03T04:46:36.986Z,0.00
2022-10-03T04:52:37.007Z,0.00
2022-10-03T04:58:37.006Z,0.03
2022-10-03T05:04:37.024Z,0.02
2022-10-03T05:10:37.057Z,0.00
2022-10-03T05:16:37.068Z,0.00
2022-10-03T05:22:37.010Z,0.00
2022-10-03T05:28:37.035Z,0.10
2022-10-03T05:34:37.029Z,0.07
2022-10-03T05:40:37.026Z,0.00
2022-10-03T05:46:37.026Z,0.12
2022-10-03T05:52:37.033Z,0.00
2022-10-03T05:58:46.968Z,0.16
2022-10-03T06:04:47.052Z,0.72
2022-10-03T06:10:47.052Z,0.62
2022-10-03T06:16:47.045Z,0.10
2022-10-03T06:22:47.063Z,0.83
2022-10-03T06:28:47.000Z,0.79
2022-10-03T06:34:47.017Z,0.52
2022-10-03T06:40:47.002Z,0.54
2022-10-03T06:46:46.996Z,0.54
2022-10-03T06:52:47.015Z,0.07
2022-10-03T06:58:47.046Z,0.61
2022-10-03T07:04:47.267Z,0.37
2022-10-03T07:10:47.024Z,0.51
2022-10-03T07:16:47.094Z,1.06
2022-10-03T07:22:47.039Z,0.58
2022-10-03T07:28:47.056Z,1.57
2022-10-03T07:34:47.024Z,0.98
2022-10-03T07:40:47.029Z,0.95
2022-10-03T07:46:47.061Z,1.09
2022-10-03T07:52:47.048Z,1.36
2022-10-03T08:10:47.023Z,0.70
2022-10-03T08:16:47.025Z,0.28
2022-10-03T08:22:47.012Z,1.26
2022-10-03T08:28:47.056Z,1.66
2022-10-03T08:34:47.058Z,2.63
2022-10-03T08:40:47.072Z,2.54
2022-10-03T08:46:47.045Z,3.09
2022-10-03T08:52:47.560Z,3.65
2022-10-03T08:58:47.463Z,3.46
2022-10-03T09:04:47.333Z,3.13
2022-10-03T09:10:47.298Z,2.97
2022-10-03T09:16:47.350Z,3.02
2022-10-03T09:22:47.535Z,3.09
2022-10-03T09:28:47.445Z,2.57
2022-10-03T09:34:47.400Z,2.81
2022-10-03T09:40:52.630Z,1.88
2022-10-03T09:46:47.415Z,3.03
2022-10-03T09:52:47.316Z,2.44
2022-10-03T10:02:17.053Z,2.98
2022-10-03T10:08:36.992Z,4.88
2022-10-03T10:14:37.035Z,3.31
2022-10-03T10:20:37.060Z,3.74
2022-10-03T10:26:37.089Z,3.51
2022-10-03T10:32:37.136Z,3.28
2022-10-03T10:38:37.066Z,3.21
2022-10-03T10:44:37.166Z,3.46
2022-10-03T10:50:37.159Z,3.86
2022-10-03T10:56:37.370Z,3.99
2022-10-03T11:02:37.173Z,4.11
2022-10-03T11:08:37.138Z,3.63
2022-10-03T11:14:37.138Z,4.36
2022-10-03T11:20:37.164Z,4.20
2022-10-03T11:26:37.442Z,3.05
2022-10-03T11:32:37.197Z,4.48
2022-10-03T11:38:37.201Z,3.14
2022-10-03T11:44:37.202Z,4.16
2022-10-03T11:50:37.184Z,3.69
2022-10-03T11:56:37.310Z,3.98
2022-10-03T12:02:37.360Z,3.00
2022-10-03T12:08:37.188Z,2.94
2022-10-03T12:14:37.200Z,3.91
2022-10-03T12:20:37.223Z,2.89
2022-10-03T12:26:37.176Z,3.11
2022-10-03T12:32:37.194Z,4.32
2022-10-03T12:38:37.232Z,5.06
2022-10-03T12:44:37.218Z,5.09
2022-10-03T12:50:37.222Z,5.61
2022-10-03T12:56:37.204Z,4.42
2022-10-03T13:02:37.253Z,3.49
2022-10-03T13:08:37.223Z,3.82
2022-10-03T13:14:37.199Z,4.47
2022-10-03T13:20:37.232Z,1.98
2022-10-03T13:26:37.220Z,3.11
2022-10-03T13:32:37.186Z,4.65
2022-10-03T13:38:37.193Z,4.64
2022-10-03T13:44:37.242Z,3.68
2022-10-03T13:50:37.253Z,3.15
2022-10-03T13:56:37.219Z,2.48
2022-10-03T14:02:37.327Z,2.76
2022-10-03T14:08:37.293Z,2.88
2022-10-03T14:14:37.230Z,3.31
2022-10-03T14:20:37.237Z,3.97
2022-10-03T14:26:37.257Z,2.88
2022-10-03T14:32:46.806Z,2.96
2022-10-03T14:38:37.314Z,3.14
2022-10-03T14:44:37.288Z,3.93
2022-10-03T14:50:37.295Z,2.80
2022-10-03T14:56:37.339Z,2.44
2022-10-03T15:02:37.337Z,3.51
2022-10-03T15:08:37.379Z,3.77
2022-10-03T15:14:37.298Z,3.38
2022-10-03T15:20:37.319Z,3.08
2022-10-03T15:26:37.351Z,2.80
2022-10-03T15:32:37.340Z,2.18
2022-10-03T15:38:37.768Z,2.25
2022-10-03T15:44:37.749Z,1.18
2022-10-03T15:50:37.377Z,0.41
2022-10-03T15:56:37.365Z,0.35
2022-10-03T16:02:37.449Z,0.66
2022-10-03T16:08:37.859Z,0.81
2022-10-03T16:14:37.326Z,0.47
2022-10-03T16:20:37.344Z,0.49
2022-10-03T16:26:37.363Z,1.19
2022-10-03T16:32:37.371Z,2.55
2022-10-03T16:38:37.366Z,2.19
2022-10-03T16:44:37.351Z,1.78
2022-10-03T16:50:39.020Z,0.63
2022-10-03T16:56:37.388Z,0.56
2022-10-03T17:02:37.461Z,0.26
2022-10-03T17:08:42.031Z,0.03
2022-10-03T17:14:37.374Z,0.34
2022-10-03T17:20:37.375Z,2.68
2022-10-03T17:26:37.399Z,3.18
2022-10-03T17:32:37.387Z,3.41
2022-10-03T17:38:49.505Z,1.93
2022-10-03T17:44:37.370Z,1.25
2022-10-03T17:50:37.396Z,1.50
2022-10-03T17:56:37.378Z,1.64
2022-10-03T18:02:37.465Z,1.70
2022-10-03T18:08:37.668Z,0.57
2022-10-03T18:16:48.167Z,0.47
2022-10-03T18:22:48.208Z,0.26
2022-10-03T18:28:48.206Z,0.41
2022-10-03T18:34:48.194Z,0.18
2022-10-03T18:41:44.430Z,0.65
2022-10-03T18:47:44.448Z,0.13
2022-10-03T19:05:44.466Z,0.60
2022-10-03T19:11:44.745Z,0.70
2022-10-03T19:17:44.699Z,1.03
2022-10-03T19:23:44.711Z,0.87
2022-10-03T19:29:44.705Z,0.81
2022-10-03T19:35:44.713Z,0.60
2022-10-03T19:41:44.971Z,0.48
2022-10-03T19:47:44.961Z,0.00
2022-10-03T19:53:44.973Z,0.03
2022-10-03T19:59:44.959Z,0.20
2022-10-03T20:05:44.959Z,0.16
2022-10-03T20:11:45.194Z,0.00
2022-10-03T20:17:45.206Z,0.04
2022-10-03T20:23:45.167Z,0.45
2022-10-03T20:29:45.228Z,0.24
2022-10-03T20:35:45.221Z,0.26
2022-10-03T20:41:45.214Z,0.40
2022-10-03T20:47:45.212Z,0.12
2022-10-03T20:53:45.214Z,0.19
2022-10-03T20:59:45.258Z,0.35
2022-10-03T21:05:45.210Z,1.52
2022-10-03T21:11:45.220Z,1.39
2022-10-03T21:17:45.207Z,1.64
2022-10-03T21:23:45.180Z,2.02
2022-10-03T21:29:45.211Z,1.51
2022-10-03T21:35:45.198Z,1.33
2022-10-03T21:41:45.222Z,0.31
2022-10-03T21:47:45.203Z,0.09
2022-10-03T21:55:39.480Z,0.42
2022-10-03T22:01:45.306Z,0.03
2022-10-03T22:07:45.254Z,0.30
2022-10-03T22:13:45.231Z,0.13
2022-10-03T22:19:45.231Z,0.00
2022-10-03T22:25:45.256Z,0.00
2022-10-03T22:31:49.610Z,0.00
2022-10-03T22:37:49.673Z,0.08
2022-10-03T22:43:49.663Z,0.08
2022-10-03T22:49:49.656Z,0.08
2022-10-03T22:55:49.659Z,0.26
2022-10-03T23:01:49.927Z,0.00
2022-10-03T23:07:49.895Z,0.07
2022-10-03T23:13:49.870Z,0.02
2022-10-03T23:19:49.902Z,0.00
2022-10-03T23:25:49.878Z,0.10
2022-10-03T23:31:59.983Z,0.06
2022-10-03T23:37:59.954Z,0.35
2022-10-03T23:43:59.970Z,0.39
2022-10-03T23:50:00.005Z,0.28
2022-10-03T23:55:59.929Z,0.29
